Time;durP1;ratioP1;P1;durP2;ratioP2;P2;SDS_P1;SDS_P2;PMS_P1;PMS_P2;Temp;Humidity;BMP_temperature;BMP_pressure;BME280_temperature;BME280_humidity;BME280_pressure;Samples;Min_cycle;Max_cycle;Signal;HPM_P1;HPM_P2
2021/06/12 00:01:06;;;;;;;4.73;4.33;;;;;;;;;;5050187;28;20169;-66
2021/06/12 00:03:35;;;;;;;4.70;4.17;;;;;;;;;;5049892;28;20181;-66
2021/06/12 00:06:02;;;;;;;4.13;3.73;;;;;;;;;;5050852;28;20173;-66
2021/06/12 00:08:28;;;;;;;4.95;4.30;;;;;;;;;;5048913;28;20469;-66
2021/06/12 00:10:54;;;;;;;4.63;4.13;;;;;;;;;;5032276;28;20181;-67
2021/06/12 00:13:20;;;;;;;4.47;3.97;;;;;;;;;;5049906;28;20169;-67
2021/06/12 00:15:46;;;;;;;4.13;3.73;;;;;;;;;;5050222;28;20526;-66
2021/06/12 00:18:12;;;;;;;5.27;4.00;;;;;;;;;;5048913;28;20628;-66
2021/06/12 00:20:39;;;;;;;4.10;3.70;;;;;;;;;;5049751;28;20185;-66
2021/06/12 00:23:05;;;;;;;4.70;4.00;;;;;;;;;;5050360;28;20181;-66
2021/06/12 00:25:32;;;;;;;4.20;3.77;;;;;;;;;;5031430;28;20189;-67
2021/06/12 00:28:01;;;;;;;4.20;3.77;;;;;;;;;;5050096;28;20189;-67
2021/06/12 00:30:28;;;;;;;4.93;4.40;;;;;;;;;;5032618;28;20236;-67
2021/06/12 00:32:55;;;;;;;9.77;3.73;;;;;;;;;;5049422;28;20324;-67
2021/06/12 00:35:21;;;;;;;4.10;3.70;;;;;;;;;;5032159;28;20178;-67
2021/06/12 00:37:47;;;;;;;4.50;3.70;;;;;;;;;;5031955;28;20205;-67
2021/06/12 00:40:14;;;;;;;4.40;3.70;;;;;;;;;;5031560;28;20188;-67
2021/06/12 00:42:41;;;;;;;4.03;3.50;;;;;;;;;;5049777;28;20555;-66
2021/06/12 00:45:17;;;;;;;3.77;3.47;;;;;;;;;;5031606;28;20523;-66
2021/06/12 00:47:43;;;;;;;5.03;4.17;;;;;;;;;;5048138;28;20419;-66
2021/06/12 00:50:10;;;;;;;4.03;3.73;;;;;;;;;;5031969;28;20458;-67
2021/06/12 00:52:37;;;;;;;4.03;3.67;;;;;;;;;;5030304;28;20196;-66
2021/06/12 00:55:04;;;;;;;3.50;3.20;;;;;;;;;;5031336;28;20173;-66
2021/06/12 00:57:30;;;;;;;3.90;3.50;;;;;;;;;;5049007;28;20186;-67
2021/06/12 00:59:56;;;;;;;3.50;3.20;;;;;;;;;;5049589;28;20183;-66
2021/06/12 01:02:22;;;;;;;3.30;3.00;;;;;;;;;;5030500;28;20199;-66
2021/06/12 01:04:48;;;;;;;3.53;3.00;;;;;;;;;;5032245;28;20188;-66
2021/06/12 01:07:14;;;;;;;3.07;2.80;;;;;;;;;;5030312;28;20738;-67
2021/06/12 01:09:40;;;;;;;3.37;3.07;;;;;;;;;;5049653;28;20204;-66
2021/06/12 01:12:25;;;;;;;3.37;3.07;;;;;;;;;;5031900;28;20542;-66
2021/06/12 01:14:56;;;;;;;3.97;3.57;;;;;;;;;;5049828;28;20538;-66
2021/06/12 01:17:27;;;;;;;3.07;2.87;;;;;;;;;;5030693;28;20535;-66
2021/06/12 01:20:02;;;;;;;4.07;3.77;;;;;;;;;;5032274;28;20177;-66
2021/06/12 01:22:35;;;;;;;3.60;3.30;;;;;;;;;;5048792;28;20262;-66
2021/06/12 01:25:05;;;;;;;3.23;2.93;;;;;;;;;;5049459;28;20177;-66
2021/06/12 01:27:34;;;;;;;3.97;3.13;;;;;;;;;;5049472;28;20185;-66
2021/06/12 01:30:00;;;;;;;4.07;3.60;;;;;;;;;;5048568;28;20229;-68
2021/06/12 01:32:26;;;;;;;3.90;3.30;;;;;;;;;;5048140;28;20181;-66
2021/06/12 01:34:56;;;;;;;3.77;3.30;;;;;;;;;;5049169;28;20682;-66
2021/06/12 01:37:23;;;;;;;4.07;3.53;;;;;;;;;;5043487;28;20575;-66
2021/06/12 01:39:49;;;;;;;3.70;3.23;;;;;;;;;;5030999;28;20196;-66
2021/06/12 01:42:18;;;;;;;3.77;3.30;;;;;;;;;;5031031;28;20192;-66
2021/06/12 01:44:44;;;;;;;3.30;3.00;;;;;;;;;;5048736;28;20219;-66
2021/06/12 01:47:11;;;;;;;3.20;2.90;;;;;;;;;;5046345;28;20196;-66
2021/06/12 01:49:37;;;;;;;3.40;3.10;;;;;;;;;;5049270;28;20190;-66
2021/06/12 01:52:04;;;;;;;3.37;2.93;;;;;;;;;;5031175;28;20181;-66
2021/06/12 01:54:30;;;;;;;2.97;2.73;;;;;;;;;;5030652;28;20185;-66
2021/06/12 01:56:57;;;;;;;3.57;3.27;;;;;;;;;;5030626;28;20185;-66
2021/06/12 01:59:23;;;;;;;3.00;2.77;;;;;;;;;;5048652;28;20181;-66
2021/06/12 02:01:52;;;;;;;3.40;3.10;;;;;;;;;;5048994;28;20209;-66
2021/06/12 02:04:18;;;;;;;3.07;2.77;;;;;;;;;;5031103;28;20353;-66
2021/06/12 02:06:45;;;;;;;3.17;2.97;;;;;;;;;;5031174;28;20292;-66
2021/06/12 02:09:11;;;;;;;2.90;2.70;;;;;;;;;;5053254;28;20319;-66
2021/06/12 02:11:38;;;;;;;3.37;2.90;;;;;;;;;;5052776;28;20238;-66
2021/06/12 02:14:04;;;;;;;2.93;2.73;;;;;;;;;;5034352;28;20213;-66
2021/06/12 02:16:30;;;;;;;2.53;2.33;;;;;;;;;;5053639;28;20178;-65
2021/06/12 02:18:56;;;;;;;3.10;2.80;;;;;;;;;;5052688;28;20180;-66
2021/06/12 02:21:22;;;;;;;2.90;2.67;;;;;;;;;;5053785;28;20653;-66
2021/06/12 02:23:58;;;;;;;3.37;2.77;;;;;;;;;;5035011;28;20185;-68
2021/06/12 02:26:25;;;;;;;2.73;2.43;;;;;;;;;;5051492;28;20169;-66
2021/06/12 02:28:51;;;;;;;3.07;2.87;;;;;;;;;;5052962;28;21211;-68
2021/06/12 02:31:21;;;;;;;2.83;2.47;;;;;;;;;;5053119;28;20188;-66
2021/06/12 02:33:48;;;;;;;2.60;2.40;;;;;;;;;;5052150;28;20180;-66
2021/06/12 02:36:14;;;;;;;3.77;2.40;;;;;;;;;;5052546;28;20208;-66
2021/06/12 02:38:41;;;;;;;3.17;2.50;;;;;;;;;;5052510;28;20569;-66
2021/06/12 02:41:07;;;;;;;3.23;2.30;;;;;;;;;;5052663;28;20185;-66
2021/06/12 02:43:33;;;;;;;2.43;1.90;;;;;;;;;;5052621;28;20189;-66
2021/06/12 02:46:01;;;;;;;2.23;2.03;;;;;;;;;;5052482;28;20870;-66
2021/06/12 02:48:29;;;;;;;2.80;2.57;;;;;;;;;;5050436;28;20208;-67
2021/06/12 02:50:56;;;;;;;2.63;2.43;;;;;;;;;;5052978;28;20601;-67
2021/06/12 02:53:25;;;;;;;2.43;2.20;;;;;;;;;;5045722;28;20547;-67
2021/06/12 02:55:53;;;;;;;3.07;2.13;;;;;;;;;;5051912;28;20204;-67
2021/06/12 02:58:24;;;;;;;2.73;2.20;;;;;;;;;;5052373;28;20201;-67
2021/06/12 03:00:50;;;;;;;2.40;2.20;;;;;;;;;;5034529;28;20235;-67
2021/06/12 03:03:17;;;;;;;2.70;2.20;;;;;;;;;;5050826;28;20229;-68
2021/06/12 03:05:47;;;;;;;2.90;2.30;;;;;;;;;;5052517;28;20196;-67
2021/06/12 03:08:15;;;;;;;2.73;2.40;;;;;;;;;;5051969;28;20631;-67
2021/06/12 03:10:42;;;;;;;2.87;2.00;;;;;;;;;;5051866;28;20229;-68
2021/06/12 03:13:10;;;;;;;2.43;2.00;;;;;;;;;;5051830;28;20184;-67
2021/06/12 03:15:37;;;;;;;2.28;2.08;;;;;;;;;;5051164;28;20471;-66
2021/06/12 03:18:03;;;;;;;2.73;2.23;;;;;;;;;;5039260;28;20592;-66
2021/06/12 03:20:30;;;;;;;2.30;2.10;;;;;;;;;;5051703;28;20179;-67
2021/06/12 03:23:01;;;;;;;3.87;2.17;;;;;;;;;;5051196;28;20173;-66
2021/06/12 03:25:27;;;;;;;2.50;2.30;;;;;;;;;;5033865;28;20181;-67
2021/06/12 03:27:54;;;;;;;2.50;2.30;;;;;;;;;;5051902;28;20600;-66
2021/06/12 03:30:20;;;;;;;2.30;2.10;;;;;;;;;;5034988;28;20255;-66
2021/06/12 03:32:46;;;;;;;2.57;2.37;;;;;;;;;;5049534;28;20186;-66
2021/06/12 03:35:12;;;;;;;2.40;2.20;;;;;;;;;;5048423;28;20618;-67
2021/06/12 03:37:40;;;;;;;3.00;2.50;;;;;;;;;;5050334;28;20185;-66
2021/06/12 03:40:06;;;;;;;2.83;2.57;;;;;;;;;;5052115;28;20208;-66
2021/06/12 03:42:32;;;;;;;2.97;2.50;;;;;;;;;;5041782;28;20201;-68
2021/06/12 03:45:01;;;;;;;2.80;2.60;;;;;;;;;;5051921;28;20287;-66
2021/06/12 03:47:27;;;;;;;3.10;2.60;;;;;;;;;;5050066;28;20342;-66
2021/06/12 03:49:54;;;;;;;2.57;2.30;;;;;;;;;;5033185;28;20298;-68
2021/06/12 03:52:23;;;;;;;3.60;2.60;;;;;;;;;;5032612;28;20186;-66
2021/06/12 03:54:49;;;;;;;2.77;2.57;;;;;;;;;;5050622;28;20203;-66
2021/06/12 03:57:15;;;;;;;3.20;2.83;;;;;;;;;;5050512;28;20256;-66
2021/06/12 03:59:44;;;;;;;3.83;3.27;;;;;;;;;;5051232;28;20181;-66
2021/06/12 04:02:11;;;;;;;3.43;2.90;;;;;;;;;;5050328;28;20603;-67
2021/06/12 04:04:38;;;;;;;4.03;3.47;;;;;;;;;;5051521;28;20310;-65
2021/06/12 04:07:04;;;;;;;3.83;3.33;;;;;;;;;;5050325;28;20269;-66
2021/06/12 04:09:30;;;;;;;2.90;2.63;;;;;;;;;;5050088;28;20199;-66
2021/06/12 04:11:56;;;;;;;4.07;3.67;;;;;;;;;;5050825;28;20647;-66
2021/06/12 04:14:22;;;;;;;4.27;3.50;;;;;;;;;;5051067;28;20213;-66
2021/06/12 04:16:48;;;;;;;3.67;3.30;;;;;;;;;;5050968;28;20180;-67
2021/06/12 04:19:14;;;;;;;2.97;2.77;;;;;;;;;;5051269;28;20216;-66
2021/06/12 04:21:40;;;;;;;5.70;4.10;;;;;;;;;;5032429;28;20190;-68
2021/06/12 04:24:06;;;;;;;3.80;3.50;;;;;;;;;;5049808;28;20170;-65
2021/06/12 04:26:32;;;;;;;3.20;3.00;;;;;;;;;;5050486;28;20188;-66
2021/06/12 04:28:58;;;;;;;3.33;3.00;;;;;;;;;;5050436;28;20284;-66
2021/06/12 04:31:24;;;;;;;3.40;3.10;;;;;;;;;;5049674;28;20270;-65
2021/06/12 04:33:50;;;;;;;3.50;2.97;;;;;;;;;;5049390;28;20180;-65
2021/06/12 04:36:16;;;;;;;3.40;3.10;;;;;;;;;;5050652;28;20177;-66
2021/06/12 04:38:42;;;;;;;2.63;2.40;;;;;;;;;;5032125;28;20268;-65
2021/06/12 04:41:08;;;;;;;3.60;2.70;;;;;;;;;;5031982;28;20195;-66
2021/06/12 04:43:34;;;;;;;3.60;3.30;;;;;;;;;;5049972;28;20172;-66
2021/06/12 04:46:00;;;;;;;5.13;4.17;;;;;;;;;;5032761;28;20238;-66
2021/06/12 04:48:26;;;;;;;3.87;3.47;;;;;;;;;;5037080;28;20181;-65
2021/06/12 04:50:52;;;;;;;4.43;3.47;;;;;;;;;;5050595;28;20211;-65
2021/06/12 04:53:18;;;;;;;4.63;3.27;;;;;;;;;;5049613;28;20685;-68
2021/06/12 04:55:44;;;;;;;4.30;3.30;;;;;;;;;;5032638;28;20187;-66
2021/06/12 04:58:10;;;;;;;6.73;3.70;;;;;;;;;;5050743;28;20236;-66
2021/06/12 05:00:37;;;;;;;3.43;3.13;;;;;;;;;;5031974;28;20185;-66
2021/06/12 05:03:04;;;;;;;4.07;3.00;;;;;;;;;;5049718;28;20903;-66
2021/06/12 05:05:30;;;;;;;5.03;3.88;;;;;;;;;;5030806;28;20415;-66
2021/06/12 05:07:56;;;;;;;4.27;3.60;;;;;;;;;;5050111;28;20177;-66
2021/06/12 05:10:22;;;;;;;5.23;4.10;;;;;;;;;;5050315;28;20295;-66
2021/06/12 05:12:48;;;;;;;4.17;3.33;;;;;;;;;;5049643;28;20220;-66
2021/06/12 05:15:15;;;;;;;5.33;3.60;;;;;;;;;;5050380;28;20271;-67
2021/06/12 05:17:42;;;;;;;4.67;3.67;;;;;;;;;;5049669;28;20185;-66
2021/06/12 05:20:09;;;;;;;4.63;3.20;;;;;;;;;;5032017;28;20755;-66
2021/06/12 05:22:36;;;;;;;4.93;3.17;;;;;;;;;;5049501;28;20185;-66
2021/06/12 05:25:02;;;;;;;5.77;3.80;;;;;;;;;;5049882;28;20189;-67
2021/06/12 05:27:28;;;;;;;3.37;2.87;;;;;;;;;;5031026;28;20177;-66
2021/06/12 05:29:54;;;;;;;4.00;3.63;;;;;;;;;;5050429;28;20254;-68
2021/06/12 05:32:20;;;;;;;6.80;3.23;;;;;;;;;;5048994;28;20188;-67
2021/06/12 05:34:46;;;;;;;6.60;3.80;;;;;;;;;;5050378;28;20185;-67
2021/06/12 05:37:13;;;;;;;4.23;3.20;;;;;;;;;;5048243;28;20212;-67
2021/06/12 05:39:40;;;;;;;3.53;2.90;;;;;;;;;;5050322;28;20243;-66
2021/06/12 05:42:06;;;;;;;5.80;3.70;;;;;;;;;;5031272;28;20432;-67
2021/06/12 05:44:32;;;;;;;3.47;2.83;;;;;;;;;;5054178;28;20282;-67
2021/06/12 05:46:58;;;;;;;3.53;3.07;;;;;;;;;;5053518;28;20601;-67
2021/06/12 05:49:24;;;;;;;3.63;2.60;;;;;;;;;;5052747;28;20198;-67
2021/06/12 05:51:50;;;;;;;3.43;3.13;;;;;;;;;;5052823;28;20197;-67
2021/06/12 05:54:16;;;;;;;2.60;2.40;;;;;;;;;;5035680;28;20260;-66
2021/06/12 05:56:42;;;;;;;4.27;3.20;;;;;;;;;;5053448;28;20651;-66
2021/06/12 05:59:08;;;;;;;3.77;3.30;;;;;;;;;;5035833;28;20253;-66
2021/06/12 06:01:34;;;;;;;3.67;3.27;;;;;;;;;;5053542;28;20205;-66
2021/06/12 06:04:01;;;;;;;5.67;3.90;;;;;;;;;;5033084;28;20188;-66
2021/06/12 06:06:27;;;;;;;4.47;3.33;;;;;;;;;;5049802;28;20264;-66
2021/06/12 06:08:53;;;;;;;4.57;3.63;;;;;;;;;;5054205;28;20311;-66
2021/06/12 06:11:19;;;;;;;4.30;3.50;;;;;;;;;;5035729;28;20192;-66
2021/06/12 06:13:46;;;;;;;4.40;3.57;;;;;;;;;;5053475;28;20320;-66
2021/06/12 06:16:12;;;;;;;5.30;3.67;;;;;;;;;;5034866;28;20197;-66
2021/06/12 06:18:38;;;;;;;4.53;4.07;;;;;;;;;;5052906;28;20526;-66
2021/06/12 06:21:05;;;;;;;5.07;3.90;;;;;;;;;;5053184;28;20181;-66
2021/06/12 06:23:31;;;;;;;4.17;3.77;;;;;;;;;;5053695;28;20647;-66
2021/06/12 06:25:57;;;;;;;4.50;3.93;;;;;;;;;;5053971;28;20185;-66
2021/06/12 06:28:23;;;;;;;4.37;3.87;;;;;;;;;;5052176;28;20188;-66
2021/06/12 06:30:49;;;;;;;4.90;4.50;;;;;;;;;;5033875;28;20197;-66
2021/06/12 06:33:15;;;;;;;7.80;4.43;;;;;;;;;;5034495;28;20188;-67
2021/06/12 06:35:41;;;;;;;5.77;5.17;;;;;;;;;;5051976;28;20182;-64
2021/06/12 06:38:08;;;;;;;7.33;6.07;;;;;;;;;;5050578;28;20174;-65
2021/06/12 06:40:34;;;;;;;6.57;5.63;;;;;;;;;;5031113;28;21107;-63
2021/06/12 06:43:00;;;;;;;6.70;6.00;;;;;;;;;;5033343;28;20207;-62
2021/06/12 06:45:26;;;;;;;6.87;5.73;;;;;;;;;;5050780;28;20671;-63
2021/06/12 06:47:52;;;;;;;6.23;5.63;;;;;;;;;;5051178;28;20181;-63
2021/06/12 06:50:18;;;;;;;7.07;6.37;;;;;;;;;;5051317;28;20253;-63
2021/06/12 06:52:47;;;;;;;7.17;6.47;;;;;;;;;;5051829;28;20211;-64
2021/06/12 06:55:13;;;;;;;8.33;7.53;;;;;;;;;;5051169;28;20567;-62
2021/06/12 06:57:39;;;;;;;8.00;7.30;;;;;;;;;;5033596;28;20182;-63
2021/06/12 07:00:05;;;;;;;8.23;7.50;;;;;;;;;;5052062;28;20180;-63
2021/06/12 07:02:32;;;;;;;9.50;8.60;;;;;;;;;;5050498;28;20668;-63
2021/06/12 07:04:58;;;;;;;9.73;8.40;;;;;;;;;;5048757;28;20176;-63
2021/06/12 07:07:24;;;;;;;8.50;7.77;;;;;;;;;;5052043;28;20192;-62
2021/06/12 07:09:52;;;;;;;9.57;8.67;;;;;;;;;;5052325;28;20210;-63
2021/06/12 07:12:18;;;;;;;10.10;9.10;;;;;;;;;;5051620;28;20179;-62
2021/06/12 07:14:44;;;;;;;8.70;7.97;;;;;;;;;;5029755;28;20225;-63
2021/06/12 07:17:11;;;;;;;10.10;9.00;;;;;;;;;;5030877;28;20599;-65
2021/06/12 07:19:37;;;;;;;9.20;8.30;;;;;;;;;;5030636;28;20184;-63
2021/06/12 07:22:03;;;;;;;10.50;9.60;;;;;;;;;;5029068;28;20621;-63
2021/06/12 07:24:30;;;;;;;9.40;8.60;;;;;;;;;;5029687;28;20214;-63
2021/06/12 07:26:56;;;;;;;9.30;8.50;;;;;;;;;;5029559;28;20497;-64
2021/06/12 07:29:23;;;;;;;9.37;8.47;;;;;;;;;;5030719;28;20278;-63
2021/06/12 07:31:49;;;;;;;9.70;8.80;;;;;;;;;;5030383;28;20897;-63
2021/06/12 07:34:15;;;;;;;10.67;9.57;;;;;;;;;;5028129;28;20274;-66
2021/06/12 07:36:41;;;;;;;8.83;8.03;;;;;;;;;;5031040;28;20248;-63
2021/06/12 07:39:08;;;;;;;10.33;9.23;;;;;;;;;;5029769;28;20645;-63
2021/06/12 07:41:35;;;;;;;9.63;8.73;;;;;;;;;;5030375;28;20196;-64
2021/06/12 07:44:01;;;;;;;9.73;8.83;;;;;;;;;;5030109;28;20253;-63
2021/06/12 07:46:27;;;;;;;9.97;7.83;;;;;;;;;;5029572;28;20209;-65
2021/06/12 07:48:53;;;;;;;9.77;8.13;;;;;;;;;;5029228;28;20217;-64
2021/06/12 07:51:19;;;;;;;8.77;7.97;;;;;;;;;;5030664;28;20186;-64
2021/06/12 07:53:45;;;;;;;9.00;8.20;;;;;;;;;;5027217;28;20174;-65
2021/06/12 07:56:11;;;;;;;8.70;7.73;;;;;;;;;;5025097;28;20174;-66
2021/06/12 07:58:37;;;;;;;8.57;7.87;;;;;;;;;;5031740;28;20231;-64
2021/06/12 08:01:04;;;;;;;8.90;8.00;;;;;;;;;;5031679;28;20178;-64
2021/06/12 08:03:30;;;;;;;7.77;7.03;;;;;;;;;;5029328;28;20200;-64
2021/06/12 08:05:56;;;;;;;7.57;6.80;;;;;;;;;;5030182;28;20182;-64
2021/06/12 08:08:22;;;;;;;7.53;6.83;;;;;;;;;;5030462;28;20214;-65
2021/06/12 08:10:48;;;;;;;8.18;7.43;;;;;;;;;;5028740;28;20477;-63
2021/06/12 08:13:14;;;;;;;7.67;6.97;;;;;;;;;;5031369;28;20661;-63
2021/06/12 08:15:40;;;;;;;7.57;6.87;;;;;;;;;;5027403;28;20256;-64
2021/06/12 08:18:07;;;;;;;7.07;6.47;;;;;;;;;;5030009;28;20178;-63
2021/06/12 08:20:33;;;;;;;8.53;7.83;;;;;;;;;;5029817;28;20190;-64
2021/06/12 08:22:59;;;;;;;7.63;6.60;;;;;;;;;;5030110;28;20530;-63
2021/06/12 08:25:25;;;;;;;8.43;7.13;;;;;;;;;;5030960;28;20186;-63
2021/06/12 08:27:52;;;;;;;7.60;6.83;;;;;;;;;;5030268;28;20182;-63
2021/06/12 08:30:18;;;;;;;7.23;6.53;;;;;;;;;;5029161;28;20218;-64
2021/06/12 08:32:44;;;;;;;6.90;6.20;;;;;;;;;;5029288;28;20178;-63
2021/06/12 08:35:10;;;;;;;7.43;6.77;;;;;;;;;;5030486;28;20568;-63
2021/06/12 08:37:37;;;;;;;7.40;6.70;;;;;;;;;;5026181;28;20224;-63
2021/06/12 08:40:04;;;;;;;7.23;6.63;;;;;;;;;;5024635;28;20255;-64
2021/06/12 08:42:30;;;;;;;9.43;8.63;;;;;;;;;;5024754;28;20192;-62
2021/06/12 08:44:58;;;;;;;30.83;13.90;;;;;;;;;;5029185;28;20403;-61
2021/06/12 08:47:24;;;;;;;13.70;12.27;;;;;;;;;;5026609;28;20186;-63
2021/06/12 08:49:50;;;;;;;13.70;12.37;;;;;;;;;;5027452;28;20224;-63
2021/06/12 08:52:17;;;;;;;80.50;21.97;;;;;;;;;;5028696;28;20178;-63
2021/06/12 08:54:44;;;;;;;145.77;28.23;;;;;;;;;;5030467;28;20174;-65
2021/06/12 08:57:10;;;;;;;102.50;19.20;;;;;;;;;;5029915;28;20507;-64
2021/06/12 08:59:37;;;;;;;147.47;25.40;;;;;;;;;;5030159;28;20200;-64
2021/06/12 09:02:04;;;;;;;148.53;25.10;;;;;;;;;;5029272;28;20273;-63
2021/06/12 09:04:31;;;;;;;91.80;20.87;;;;;;;;;;5028278;28;20189;-64
2021/06/12 09:07:16;;;;;;;67.17;14.70;;;;;;;;;;5021624;28;20186;-64
2021/06/12 09:09:43;;;;;;;17.10;14.47;;;;;;;;;;5023544;28;20219;-62
2021/06/12 09:12:09;;;;;;;15.87;13.87;;;;;;;;;;5027322;28;20184;-63
2021/06/12 09:14:35;;;;;;;16.43;14.20;;;;;;;;;;5038052;28;20209;-62
2021/06/12 09:17:01;;;;;;;18.63;14.43;;;;;;;;;;5048874;28;20178;-63
2021/06/12 09:19:27;;;;;;;18.90;16.93;;;;;;;;;;5043756;28;20177;-62
2021/06/12 09:22:00;;;;;;;16.07;14.47;;;;;;;;;;5044284;28;20186;-63
2021/06/12 09:24:39;;;;;;;17.30;15.50;;;;;;;;;;5030956;28;20723;-62
2021/06/12 09:27:13;;;;;;;17.10;14.73;;;;;;;;;;5030868;28;20235;-65
2021/06/12 09:29:42;;;;;;;16.37;14.80;;;;;;;;;;5031106;28;20223;-65
2021/06/12 09:32:12;;;;;;;15.63;13.50;;;;;;;;;;5047658;28;20207;-67
2021/06/12 09:34:39;;;;;;;13.80;12.33;;;;;;;;;;5031904;28;20742;-65
2021/06/12 09:37:16;;;;;;;13.40;12.10;;;;;;;;;;5031141;28;20276;-65
2021/06/12 09:39:42;;;;;;;14.33;12.83;;;;;;;;;;5032108;28;20251;-65
2021/06/12 09:42:09;;;;;;;14.43;12.47;;;;;;;;;;5049368;28;20293;-65
2021/06/12 09:44:36;;;;;;;14.60;13.10;;;;;;;;;;5031535;28;20178;-64
2021/06/12 09:47:25;;;;;;;13.67;12.37;;;;;;;;;;5049923;28;20178;-64
2021/06/12 09:49:54;;;;;;;14.53;12.60;;;;;;;;;;5038515;28;20408;-65
2021/06/12 09:52:21;;;;;;;14.23;13.00;;;;;;;;;;5049133;28;20177;-64
2021/06/12 09:54:49;;;;;;;14.47;13.07;;;;;;;;;;5049314;28;20265;-66
2021/06/12 09:57:19;;;;;;;13.70;12.40;;;;;;;;;;5029147;28;20174;-65
2021/06/12 09:59:46;;;;;;;12.27;11.13;;;;;;;;;;5048308;28;20603;-66
2021/06/12 10:02:13;;;;;;;17.63;15.83;;;;;;;;;;5028818;28;20198;-66
2021/06/12 10:04:58;;;;;;;19.60;14.53;;;;;;;;;;5048529;28;20189;-60
2021/06/12 10:07:27;;;;;;;15.30;13.80;;;;;;;;;;5049541;28;20178;-66
2021/06/12 10:09:54;;;;;;;17.33;15.20;;;;;;;;;;5031662;28;20660;-66
2021/06/12 10:12:21;;;;;;;17.03;14.33;;;;;;;;;;5048833;28;20656;-65
2021/06/12 10:14:47;;;;;;;15.60;13.53;;;;;;;;;;5048711;28;20228;-63
2021/06/12 10:17:13;;;;;;;15.17;11.57;;;;;;;;;;5047612;28;20665;-64
2021/06/12 10:19:43;;;;;;;14.90;13.33;;;;;;;;;;5029453;28;20207;-68
2021/06/12 10:22:10;;;;;;;15.33;13.73;;;;;;;;;;5030330;28;20200;-67
2021/06/12 10:24:40;;;;;;;14.63;13.07;;;;;;;;;;5030807;28;20187;-66
2021/06/12 10:27:06;;;;;;;15.87;14.27;;;;;;;;;;5029864;28;20181;-68
2021/06/12 10:29:33;;;;;;;14.57;12.83;;;;;;;;;;5050931;28;20577;-67
2021/06/12 10:32:00;;;;;;;14.70;13.13;;;;;;;;;;5051253;28;20185;-68
2021/06/12 10:34:27;;;;;;;15.97;14.30;;;;;;;;;;5049687;28;20632;-66
2021/06/12 10:36:58;;;;;;;14.63;12.83;;;;;;;;;;5026947;28;20177;-67
2021/06/12 10:39:28;;;;;;;16.83;15.23;;;;;;;;;;5032654;28;20855;-67
2021/06/12 10:42:11;;;;;;;16.60;15.00;;;;;;;;;;5032780;28;20200;-67
2021/06/12 10:44:37;;;;;;;16.90;15.30;;;;;;;;;;5026746;28;20741;-66
2021/06/12 10:47:03;;;;;;;15.63;14.03;;;;;;;;;;5051679;28;20177;-66
2021/06/12 10:49:31;;;;;;;13.93;12.53;;;;;;;;;;5051210;28;20205;-66
2021/06/12 10:51:58;;;;;;;13.77;12.37;;;;;;;;;;5033333;28;20228;-66
2021/06/12 10:54:28;;;;;;;12.23;10.90;;;;;;;;;;5033657;28;20193;-66
2021/06/12 10:57:02;;;;;;;11.90;10.53;;;;;;;;;;5033059;28;20212;-66
2021/06/12 10:59:50;;;;;;;11.10;10.13;;;;;;;;;;5049179;28;20514;-66
2021/06/12 11:04:52;;;;;;;12.80;11.50;;;;;;;;;;5050634;28;20713;-65
2021/06/12 11:07:31;;;;;;;11.27;10.13;;;;;;;;;;5051504;28;20180;-66
2021/06/12 11:10:12;;;;;;;11.83;10.73;;;;;;;;;;5050386;28;20696;-67
2021/06/12 11:12:38;;;;;;;13.80;12.33;;;;;;;;;;5031867;28;20183;-66
2021/06/12 11:15:12;;;;;;;11.57;10.37;;;;;;;;;;5051930;28;20264;-65
2021/06/12 11:17:40;;;;;;;12.53;10.90;;;;;;;;;;5050120;28;20176;-65
2021/06/12 11:20:13;;;;;;;9.73;8.77;;;;;;;;;;5050743;28;20519;-65
2021/06/12 11:22:42;;;;;;;10.03;9.03;;;;;;;;;;5034051;28;20299;-65
2021/06/12 11:25:08;;;;;;;9.17;8.23;;;;;;;;;;5050661;28;20760;-65
2021/06/12 11:27:36;;;;;;;8.23;7.30;;;;;;;;;;5050286;28;20185;-64
2021/06/12 11:30:20;;;;;;;9.93;5.87;;;;;;;;;;5032896;28;20548;-64
2021/06/12 11:32:50;;;;;;;7.40;5.17;;;;;;;;;;5032731;28;20234;-65
2021/06/12 11:35:36;;;;;;;8.77;4.87;;;;;;;;;;5047807;28;20659;-65
2021/06/12 11:38:02;;;;;;;7.20;4.27;;;;;;;;;;5037722;28;20243;-64
2021/06/12 11:40:28;;;;;;;4.60;3.80;;;;;;;;;;5033009;28;20192;-65
2021/06/12 11:42:54;;;;;;;5.10;4.33;;;;;;;;;;5052730;28;20277;-64
2021/06/12 11:45:22;;;;;;;4.63;3.00;;;;;;;;;;5050972;28;20272;-65
2021/06/12 11:47:48;;;;;;;6.40;3.47;;;;;;;;;;5050674;28;20189;-65
2021/06/12 11:50:15;;;;;;;5.13;3.33;;;;;;;;;;5032898;28;20291;-64
2021/06/12 11:52:42;;;;;;;5.37;4.47;;;;;;;;;;5050675;28;20373;-64
2021/06/12 11:55:15;;;;;;;4.43;3.20;;;;;;;;;;5052624;28;20170;-65
2021/06/12 11:57:42;;;;;;;7.30;3.00;;;;;;;;;;5051669;28;20178;-66
2021/06/12 12:00:28;;;;;;;2.83;2.63;;;;;;;;;;5032660;28;20184;-65
2021/06/12 12:02:57;;;;;;;3.63;3.10;;;;;;;;;;5032390;28;20224;-64
2021/06/12 12:05:24;;;;;;;5.43;2.77;;;;;;;;;;5051559;28;20292;-65
2021/06/12 12:07:50;;;;;;;5.27;3.00;;;;;;;;;;5050758;28;20243;-65
2021/06/12 12:10:23;;;;;;;4.33;2.87;;;;;;;;;;5051125;28;20198;-65
2021/06/12 12:12:49;;;;;;;7.63;3.00;;;;;;;;;;5049811;28;20228;-64
2021/06/12 12:15:15;;;;;;;3.77;3.13;;;;;;;;;;5050587;28;20633;-64
2021/06/12 12:17:42;;;;;;;5.50;3.00;;;;;;;;;;5049722;28;20213;-66
2021/06/12 12:20:09;;;;;;;4.20;3.17;;;;;;;;;;5050016;28;20185;-65
2021/06/12 12:22:44;;;;;;;4.30;2.47;;;;;;;;;;5050091;28;20184;-65
2021/06/12 12:25:11;;;;;;;7.13;2.90;;;;;;;;;;5031820;28;20200;-64
2021/06/12 12:27:38;;;;;;;6.90;2.77;;;;;;;;;;5050342;28;20201;-64
2021/06/12 12:30:04;;;;;;;8.07;3.10;;;;;;;;;;5032018;28;20232;-65
2021/06/12 12:32:30;;;;;;;4.30;2.90;;;;;;;;;;5048244;28;20274;-64
2021/06/12 12:35:09;;;;;;;5.57;3.00;;;;;;;;;;5049038;28;20209;-64
2021/06/12 12:37:35;;;;;;;4.47;2.93;;;;;;;;;;5049800;28;20174;-65
2021/06/12 12:40:01;;;;;;;5.87;3.00;;;;;;;;;;5050099;28;20178;-65
2021/06/12 12:42:27;;;;;;;7.03;3.00;;;;;;;;;;5048479;28;20194;-68
2021/06/12 12:44:58;;;;;;;5.77;3.27;;;;;;;;;;5047035;28;20190;-66
2021/06/12 12:47:30;;;;;;;4.93;2.73;;;;;;;;;;5029832;28;21253;-66
2021/06/12 12:49:57;;;;;;;4.03;2.97;;;;;;;;;;5046600;28;20294;-66
2021/06/12 12:52:24;;;;;;;4.70;2.73;;;;;;;;;;5030112;28;20179;-67
2021/06/12 12:55:01;;;;;;;4.53;2.80;;;;;;;;;;5029260;28;20187;-67
2021/06/12 12:57:40;;;;;;;3.03;2.43;;;;;;;;;;5048697;28;20194;-69
2021/06/12 13:00:14;;;;;;;6.33;2.83;;;;;;;;;;5047475;28;20183;-68
2021/06/12 13:02:40;;;;;;;4.25;3.08;;;;;;;;;;5028597;28;20443;-66
2021/06/12 13:05:13;;;;;;;2.77;2.50;;;;;;;;;;5049917;28;20172;-66
2021/06/12 13:07:39;;;;;;;6.03;2.80;;;;;;;;;;5049798;28;20185;-67
2021/06/12 13:10:09;;;;;;;6.17;3.50;;;;;;;;;;5030598;28;20197;-66
2021/06/12 13:12:35;;;;;;;5.00;3.10;;;;;;;;;;5027011;28;20173;-66
2021/06/12 13:15:03;;;;;;;6.83;2.87;;;;;;;;;;5049221;28;20209;-66
2021/06/12 13:17:30;;;;;;;5.43;2.83;;;;;;;;;;5047571;28;20189;-66
2021/06/12 13:19:58;;;;;;;5.20;2.83;;;;;;;;;;5030635;28;20618;-66
2021/06/12 13:22:34;;;;;;;8.57;3.43;;;;;;;;;;5031236;28;20181;-66
2021/06/12 13:25:06;;;;;;;5.23;3.50;;;;;;;;;;5050762;28;20225;-65
2021/06/12 13:27:32;;;;;;;7.43;3.27;;;;;;;;;;5049176;28;20616;-67
2021/06/12 13:29:58;;;;;;;5.80;3.70;;;;;;;;;;5048579;28;20217;-66
2021/06/12 13:32:28;;;;;;;12.23;4.33;;;;;;;;;;5048269;28;20271;-65
2021/06/12 13:34:56;;;;;;;4.63;2.40;;;;;;;;;;5031308;28;20179;-66
2021/06/12 13:37:22;;;;;;;6.93;3.17;;;;;;;;;;5049870;28;20647;-64
2021/06/12 13:39:52;;;;;;;4.97;2.90;;;;;;;;;;5031582;28;20409;-65
2021/06/12 13:42:20;;;;;;;5.73;3.10;;;;;;;;;;5030767;28;20191;-67
2021/06/12 13:45:03;;;;;;;12.27;3.28;;;;;;;;;;5049431;28;20782;-59
2021/06/12 13:47:29;;;;;;;20.27;4.40;;;;;;;;;;5048719;28;21109;-60
2021/06/12 13:49:55;;;;;;;3.63;2.70;;;;;;;;;;5049879;28;20200;-60
2021/06/12 13:52:21;;;;;;;4.17;2.73;;;;;;;;;;5049422;28;20266;-60
2021/06/12 13:54:47;;;;;;;17.37;2.90;;;;;;;;;;5050362;28;20783;-60
2021/06/12 13:57:17;;;;;;;5.80;2.60;;;;;;;;;;5049284;28;20204;-63
2021/06/12 13:59:43;;;;;;;4.37;2.80;;;;;;;;;;5032077;28;20231;-60
2021/06/12 14:02:10;;;;;;;4.00;2.63;;;;;;;;;;5018927;28;20308;-61
2021/06/12 14:04:37;;;;;;;4.43;2.40;;;;;;;;;;5051625;28;20242;-59
2021/06/12 14:07:04;;;;;;;7.70;3.53;;;;;;;;;;5053567;28;20518;-60
2021/06/12 14:09:30;;;;;;;9.73;3.73;;;;;;;;;;5033531;28;20228;-62
2021/06/12 14:11:56;;;;;;;3.33;2.60;;;;;;;;;;5053166;28;21045;-60
2021/06/12 14:14:22;;;;;;;7.00;3.03;;;;;;;;;;5052107;28;20212;-60
2021/06/12 14:16:48;;;;;;;8.20;2.80;;;;;;;;;;5053048;28;20648;-60
2021/06/12 14:19:14;;;;;;;4.27;2.27;;;;;;;;;;5033853;28;20658;-60
2021/06/12 14:21:40;;;;;;;5.33;2.63;;;;;;;;;;5053160;28;20189;-60
2021/06/12 14:24:09;;;;;;;3.50;2.80;;;;;;;;;;5052482;28;20184;-59
2021/06/12 14:26:35;;;;;;;5.23;3.07;;;;;;;;;;5052361;28;20559;-59
2021/06/12 14:29:01;;;;;;;2.80;2.13;;;;;;;;;;5034163;28;20509;-59
2021/06/12 14:31:27;;;;;;;3.73;2.57;;;;;;;;;;5032220;28;20207;-59
2021/06/12 14:33:53;;;;;;;3.30;2.50;;;;;;;;;;5051002;28;20616;-59
2021/06/12 14:36:19;;;;;;;3.10;2.20;;;;;;;;;;5034118;28;20240;-60
2021/06/12 14:38:45;;;;;;;3.60;2.40;;;;;;;;;;5050584;28;20519;-60
2021/06/12 14:41:12;;;;;;;4.67;2.07;;;;;;;;;;5051736;28;20177;-59
2021/06/12 14:43:38;;;;;;;4.87;2.30;;;;;;;;;;5052186;28;20632;-59